CheckWX is a tool to help pilots better visualize weather data.  It is not intended as a substitute for an official pre-flight weather briefing.

04:37:16 UTC

1A5 METAR
Macon County Airport
Franklin, North Carolina, USA
Current

17 mins ago

K1A5 270420Z AUTO 00000KT 7SM CLR 17/17 A3032 RMK AO2 T01740167
Observed
Jun-27 @ 04:20 UTC
Visibility
7 SM
Flight Rules
VFR
Cloud Levels
  • Clear skies
Temperature
17°C / 63°F
Dewpoint
17°C / 63°F
Humidity
100%
Altimeter
30.32" Hg
Pressure
1026.72 hPa
Previous

37 mins ago

K1A5 270400Z AUTO 00000KT 10SM CLR 18/17 A3031 RMK AO2 T01790171
Observed
Jun-27 @ 04:00 UTC
Visibility
10 SM
Flight Rules
VFR
Cloud Levels
  • Clear skies
Temperature
18°C / 64°F
Dewpoint
17°C / 63°F
Humidity
94%
Altimeter
30.31" Hg
Pressure
1026.42 hPa
Previous

57 mins ago

K1A5 270340Z AUTO 00000KT 10SM CLR 18/17 A3031 RMK AO2 T01800173
Observed
Jun-27 @ 03:40 UTC
Visibility
10 SM
Flight Rules
VFR
Cloud Levels
  • Clear skies
Temperature
18°C / 64°F
Dewpoint
17°C / 63°F
Humidity
94%
Altimeter
30.31" Hg
Pressure
1026.42 hPa